Washington Executive (W32)
Clinton, MD
Field Elevation: 249
Lat: 38°44.89N  Long: 76°55.97W
CTAF/Unicom Freq: 122.8000
   
    
Weather Advisories
10/31/2014 06:03 Z
Altimeter 30.04" Hg
Wind 298° @ 0 KT
Gusts 0 KT
Temperature 4° C (39° F)
Dewpoint 1° C (34° F)
Relative Humidity 82%
Density Altitude -1,271 feet
Condensation Altitude 1,659 feet
  Wind and Runways
Indicated Runway = 23
History
 
 
More Info
All DigiWx sites map
Weather Radar
NOAA Forecast
 
Airport IQ 5010
(HMIEM) Shock Trauma Ctr
(26N) Ocean City
 
about DigiWx
 
FAA Disclaimer: The data displayed is for advisory purposes only and is not to be used for flight planning or operations. For official data, please call (not available) to hear the current automated AWOS voice message.
  METAR W32 310603Z AUTO 30000KT 04/01 A3004